sensor_id;sensor_type;location;lat;lon;timestamp;P1;durP1;ratioP1;P2;durP2;ratioP2
32523;SDS011;18965;52.242;20.886;2023-05-07T00:00:00;15.27;;;5.35;;
32523;SDS011;18965;52.242;20.886;2023-05-07T00:02:26;17.63;;;7.05;;
32523;SDS011;18965;52.242;20.886;2023-05-07T00:04:51;14.45;;;3.70;;
32523;SDS011;18965;52.242;20.886;2023-05-07T00:07:17;14.55;;;4.47;;
32523;SDS011;18965;52.242;20.886;2023-05-07T00:09:43;7.82;;;3.80;;
32523;SDS011;18965;52.242;20.886;2023-05-07T00:12:09;19.02;;;5.93;;
32523;SDS011;18965;52.242;20.886;2023-05-07T00:14:35;15.73;;;4.53;;
32523;SDS011;18965;52.242;20.886;2023-05-07T00:17:01;18.98;;;5.60;;
32523;SDS011;18965;52.242;20.886;2023-05-07T00:19:27;20.42;;;5.13;;
32523;SDS011;18965;52.242;20.886;2023-05-07T00:21:52;13.23;;;4.93;;
32523;SDS011;18965;52.242;20.886;2023-05-07T00:24:19;11.00;;;4.25;;
32523;SDS011;18965;52.242;20.886;2023-05-07T00:26:44;11.02;;;4.13;;
32523;SDS011;18965;52.242;20.886;2023-05-07T00:29:10;20.70;;;4.80;;
32523;SDS011;18965;52.242;20.886;2023-05-07T00:31:36;53.25;;;28.75;;
32523;SDS011;18965;52.242;20.886;2023-05-07T00:34:01;10.27;;;3.97;;
32523;SDS011;18965;52.242;20.886;2023-05-07T00:36:27;10.20;;;4.22;;
32523;SDS011;18965;52.242;20.886;2023-05-07T00:38:54;27.67;;;5.53;;
32523;SDS011;18965;52.242;20.886;2023-05-07T00:41:20;15.23;;;4.45;;
32523;SDS011;18965;52.242;20.886;2023-05-07T00:43:46;11.82;;;4.35;;
32523;SDS011;18965;52.242;20.886;2023-05-07T00:46:12;14.85;;;7.88;;
32523;SDS011;18965;52.242;20.886;2023-05-07T00:48:40;26.75;;;4.85;;
32523;SDS011;18965;52.242;20.886;2023-05-07T00:51:06;10.07;;;3.67;;
32523;SDS011;18965;52.242;20.886;2023-05-07T00:53:32;19.30;;;5.25;;
32523;SDS011;18965;52.242;20.886;2023-05-07T00:55:57;34.97;;;6.25;;
32523;SDS011;18965;52.242;20.886;2023-05-07T00:58:25;42.60;;;27.67;;
32523;SDS011;18965;52.242;20.886;2023-05-07T01:00:51;5.85;;;3.28;;
32523;SDS011;18965;52.242;20.886;2023-05-07T01:03:17;6.85;;;3.17;;
32523;SDS011;18965;52.242;20.886;2023-05-07T01:05:43;12.02;;;4.03;;
32523;SDS011;18965;52.242;20.886;2023-05-07T01:08:11;16.00;;;4.05;;
32523;SDS011;18965;52.242;20.886;2023-05-07T01:10:37;8.85;;;3.65;;
32523;SDS011;18965;52.242;20.886;2023-05-07T01:13:07;13.75;;;3.63;;
32523;SDS011;18965;52.242;20.886;2023-05-07T01:15:35;10.43;;;3.45;;
32523;SDS011;18965;52.242;20.886;2023-05-07T01:18:01;14.05;;;4.10;;
32523;SDS011;18965;52.242;20.886;2023-05-07T01:20:27;22.88;;;5.45;;
32523;SDS011;18965;52.242;20.886;2023-05-07T01:22:53;11.68;;;3.47;;
32523;SDS011;18965;52.242;20.886;2023-05-07T01:25:20;18.13;;;5.28;;
32523;SDS011;18965;52.242;20.886;2023-05-07T01:27:46;30.10;;;10.57;;
32523;SDS011;18965;52.242;20.886;2023-05-07T01:30:12;11.10;;;3.95;;
32523;SDS011;18965;52.242;20.886;2023-05-07T01:32:39;6.10;;;3.45;;
32523;SDS011;18965;52.242;20.886;2023-05-07T01:35:14;10.77;;;3.67;;
32523;SDS011;18965;52.242;20.886;2023-05-07T01:37:45;48.85;;;28.73;;
32523;SDS011;18965;52.242;20.886;2023-05-07T01:40:12;21.00;;;4.65;;
32523;SDS011;18965;52.242;20.886;2023-05-07T01:42:38;23.70;;;4.88;;
32523;SDS011;18965;52.242;20.886;2023-05-07T01:45:06;103.57;;;12.45;;
32523;SDS011;18965;52.242;20.886;2023-05-07T01:47:32;9.05;;;3.33;;
32523;SDS011;18965;52.242;20.886;2023-05-07T01:49:59;9.63;;;3.58;;
32523;SDS011;18965;52.242;20.886;2023-05-07T01:52:25;14.00;;;5.10;;
32523;SDS011;18965;52.242;20.886;2023-05-07T01:54:53;60.45;;;28.30;;
32523;SDS011;18965;52.242;20.886;2023-05-07T01:57:18;20.83;;;6.55;;
32523;SDS011;18965;52.242;20.886;2023-05-07T01:59:44;35.75;;;20.17;;
32523;SDS011;18965;52.242;20.886;2023-05-07T02:02:10;11.13;;;4.40;;
32523;SDS011;18965;52.242;20.886;2023-05-07T02:04:36;38.25;;;7.53;;
32523;SDS011;18965;52.242;20.886;2023-05-07T02:07:01;31.25;;;6.20;;
32523;SDS011;18965;52.242;20.886;2023-05-07T02:09:27;152.55;;;72.00;;
32523;SDS011;18965;52.242;20.886;2023-05-07T02:11:53;32.65;;;7.22;;
32523;SDS011;18965;52.242;20.886;2023-05-07T02:14:18;32.50;;;7.43;;
32523;SDS011;18965;52.242;20.886;2023-05-07T02:16:45;18.65;;;6.47;;
32523;SDS011;18965;52.242;20.886;2023-05-07T02:19:11;23.77;;;7.70;;
32523;SDS011;18965;52.242;20.886;2023-05-07T02:21:36;81.57;;;32.88;;
32523;SDS011;18965;52.242;20.886;2023-05-07T02:24:02;17.27;;;5.97;;
32523;SDS011;18965;52.242;20.886;2023-05-07T02:26:28;14.20;;;4.63;;
32523;SDS011;18965;52.242;20.886;2023-05-07T02:28:54;11.48;;;3.97;;
32523;SDS011;18965;52.242;20.886;2023-05-07T02:31:19;13.35;;;3.88;;
32523;SDS011;18965;52.242;20.886;2023-05-07T02:33:45;15.45;;;3.92;;
32523;SDS011;18965;52.242;20.886;2023-05-07T02:36:11;36.15;;;18.88;;
32523;SDS011;18965;52.242;20.886;2023-05-07T02:38:37;20.83;;;11.30;;
32523;SDS011;18965;52.242;20.886;2023-05-07T02:41:03;30.00;;;8.57;;
32523;SDS011;18965;52.242;20.886;2023-05-07T02:43:29;13.82;;;4.22;;
32523;SDS011;18965;52.242;20.886;2023-05-07T02:46:01;16.58;;;4.82;;
32523;SDS011;18965;52.242;20.886;2023-05-07T02:48:31;15.95;;;4.82;;
32523;SDS011;18965;52.242;20.886;2023-05-07T02:50:57;29.02;;;8.40;;
32523;SDS011;18965;52.242;20.886;2023-05-07T02:53:23;13.68;;;7.07;;
32523;SDS011;18965;52.242;20.886;2023-05-07T02:55:53;86.40;;;35.63;;
32523;SDS011;18965;52.242;20.886;2023-05-07T02:58:19;12.23;;;5.55;;
32523;SDS011;18965;52.242;20.886;2023-05-07T03:00:45;23.05;;;5.18;;
32523;SDS011;18965;52.242;20.886;2023-05-07T03:03:11;22.50;;;5.55;;
32523;SDS011;18965;52.242;20.886;2023-05-07T03:05:36;16.92;;;5.10;;
32523;SDS011;18965;52.242;20.886;2023-05-07T03:08:02;11.00;;;4.00;;
32523;SDS011;18965;52.242;20.886;2023-05-07T03:10:29;21.13;;;5.15;;
32523;SDS011;18965;52.242;20.886;2023-05-07T03:12:55;27.65;;;6.65;;
32523;SDS011;18965;52.242;20.886;2023-05-07T03:15:21;151.40;;;66.82;;
32523;SDS011;18965;52.242;20.886;2023-05-07T03:17:47;45.28;;;12.43;;
32523;SDS011;18965;52.242;20.886;2023-05-07T03:20:13;36.60;;;27.10;;
32523;SDS011;18965;52.242;20.886;2023-05-07T03:22:39;109.63;;;58.63;;
32523;SDS011;18965;52.242;20.886;2023-05-07T03:25:05;90.47;;;38.92;;
32523;SDS011;18965;52.242;20.886;2023-05-07T03:27:31;79.13;;;44.80;;
32523;SDS011;18965;52.242;20.886;2023-05-07T03:29:57;172.63;;;48.92;;
32523;SDS011;18965;52.242;20.886;2023-05-07T03:32:22;34.58;;;11.10;;
32523;SDS011;18965;52.242;20.886;2023-05-07T03:34:48;25.42;;;8.57;;
32523;SDS011;18965;52.242;20.886;2023-05-07T03:37:14;98.30;;;52.10;;
32523;SDS011;18965;52.242;20.886;2023-05-07T03:39:39;15.48;;;8.27;;
32523;SDS011;18965;52.242;20.886;2023-05-07T03:42:05;20.63;;;5.70;;
32523;SDS011;18965;52.242;20.886;2023-05-07T03:44:31;22.13;;;12.35;;
32523;SDS011;18965;52.242;20.886;2023-05-07T03:46:57;12.98;;;5.57;;
32523;SDS011;18965;52.242;20.886;2023-05-07T03:49:22;14.23;;;4.50;;
32523;SDS011;18965;52.242;20.886;2023-05-07T03:51:48;24.23;;;6.88;;
32523;SDS011;18965;52.242;20.886;2023-05-07T03:54:14;39.08;;;18.13;;
32523;SDS011;18965;52.242;20.886;2023-05-07T03:56:39;17.65;;;5.28;;
32523;SDS011;18965;52.242;20.886;2023-05-07T03:59:05;97.65;;;49.22;;
32523;SDS011;18965;52.242;20.886;2023-05-07T04:01:31;11.45;;;3.97;;
32523;SDS011;18965;52.242;20.886;2023-05-07T04:03:56;14.55;;;3.75;;
32523;SDS011;18965;52.242;20.886;2023-05-07T04:06:22;22.80;;;4.70;;
32523;SDS011;18965;52.242;20.886;2023-05-07T04:08:48;13.38;;;6.25;;
32523;SDS011;18965;52.242;20.886;2023-05-07T04:11:14;64.20;;;36.72;;
32523;SDS011;18965;52.242;20.886;2023-05-07T04:13:39;14.18;;;4.90;;
32523;SDS011;18965;52.242;20.886;2023-05-07T04:16:05;37.03;;;12.65;;
32523;SDS011;18965;52.242;20.886;2023-05-07T04:18:31;17.95;;;6.53;;
32523;SDS011;18965;52.242;20.886;2023-05-07T04:20:57;33.75;;;7.30;;
32523;SDS011;18965;52.242;20.886;2023-05-07T04:23:22;27.73;;;6.93;;
32523;SDS011;18965;52.242;20.886;2023-05-07T04:25:48;40.80;;;11.88;;
32523;SDS011;18965;52.242;20.886;2023-05-07T04:28:15;36.50;;;7.80;;
32523;SDS011;18965;52.242;20.886;2023-05-07T04:30:40;54.28;;;12.60;;
32523;SDS011;18965;52.242;20.886;2023-05-07T04:33:06;37.78;;;7.63;;
32523;SDS011;18965;52.242;20.886;2023-05-07T04:35:32;30.60;;;6.43;;
32523;SDS011;18965;52.242;20.886;2023-05-07T04:37:58;29.65;;;7.53;;
32523;SDS011;18965;52.242;20.886;2023-05-07T04:40:25;62.70;;;33.00;;
32523;SDS011;18965;52.242;20.886;2023-05-07T04:42:50;32.13;;;11.35;;
32523;SDS011;18965;52.242;20.886;2023-05-07T04:45:18;115.00;;;53.97;;
32523;SDS011;18965;52.242;20.886;2023-05-07T04:47:43;17.88;;;6.70;;
32523;SDS011;18965;52.242;20.886;2023-05-07T04:50:09;29.48;;;5.97;;
32523;SDS011;18965;52.242;20.886;2023-05-07T04:52:35;41.28;;;7.15;;
32523;SDS011;18965;52.242;20.886;2023-05-07T04:55:01;122.90;;;52.15;;
32523;SDS011;18965;52.242;20.886;2023-05-07T04:57:27;147.60;;;67.28;;
32523;SDS011;18965;52.242;20.886;2023-05-07T04:59:53;36.33;;;18.25;;
32523;SDS011;18965;52.242;20.886;2023-05-07T05:02:19;42.78;;;8.15;;
32523;SDS011;18965;52.242;20.886;2023-05-07T05:04:45;27.98;;;6.95;;
32523;SDS011;18965;52.242;20.886;2023-05-07T05:07:10;32.83;;;11.35;;
32523;SDS011;18965;52.242;20.886;2023-05-07T05:09:36;17.75;;;5.28;;
32523;SDS011;18965;52.242;20.886;2023-05-07T05:12:02;13.25;;;3.72;;
32523;SDS011;18965;52.242;20.886;2023-05-07T05:14:29;26.90;;;5.95;;
32523;SDS011;18965;52.242;20.886;2023-05-07T16:28:19;328.80;;;96.50;;
32523;SDS011;18965;52.242;20.886;2023-05-07T16:30:45;328.65;;;99.03;;
32523;SDS011;18965;52.242;20.886;2023-05-07T16:33:11;297.33;;;92.25;;
32523;SDS011;18965;52.242;20.886;2023-05-07T16:35:37;353.13;;;103.60;;
32523;SDS011;18965;52.242;20.886;2023-05-07T16:38:03;322.17;;;96.38;;
32523;SDS011;18965;52.242;20.886;2023-05-07T16:40:36;330.67;;;98.82;;
32523;SDS011;18965;52.242;20.886;2023-05-07T16:43:05;311.52;;;94.10;;
32523;SDS011;18965;52.242;20.886;2023-05-07T16:45:32;334.48;;;99.47;;
32523;SDS011;18965;52.242;20.886;2023-05-07T16:47:58;296.58;;;93.80;;
32523;SDS011;18965;52.242;20.886;2023-05-07T16:50:24;311.58;;;105.55;;
32523;SDS011;18965;52.242;20.886;2023-05-07T16:52:50;318.30;;;97.00;;
32523;SDS011;18965;52.242;20.886;2023-05-07T16:55:16;327.17;;;102.50;;
32523;SDS011;18965;52.242;20.886;2023-05-07T16:57:42;315.05;;;97.60;;
32523;SDS011;18965;52.242;20.886;2023-05-07T17:00:08;310.33;;;94.60;;
32523;SDS011;18965;52.242;20.886;2023-05-07T17:02:35;313.02;;;96.22;;
32523;SDS011;18965;52.242;20.886;2023-05-07T17:05:02;334.10;;;103.68;;
32523;SDS011;18965;52.242;20.886;2023-05-07T17:07:30;315.17;;;111.93;;
32523;SDS011;18965;52.242;20.886;2023-05-07T17:09:56;370.35;;;105.50;;
32523;SDS011;18965;52.242;20.886;2023-05-07T17:12:22;301.02;;;90.78;;
32523;SDS011;18965;52.242;20.886;2023-05-07T17:14:48;328.77;;;100.40;;
32523;SDS011;18965;52.242;20.886;2023-05-07T17:17:14;309.27;;;113.13;;
32523;SDS011;18965;52.242;20.886;2023-05-07T17:19:40;337.27;;;101.50;;
32523;SDS011;18965;52.242;20.886;2023-05-07T17:22:06;303.20;;;89.07;;
32523;SDS011;18965;52.242;20.886;2023-05-07T17:24:32;328.70;;;94.90;;
32523;SDS011;18965;52.242;20.886;2023-05-07T17:26:58;337.00;;;95.53;;
32523;SDS011;18965;52.242;20.886;2023-05-07T17:29:24;323.80;;;96.57;;
32523;SDS011;18965;52.242;20.886;2023-05-07T17:31:50;291.83;;;92.22;;
32523;SDS011;18965;52.242;20.886;2023-05-07T17:34:16;286.48;;;92.63;;
32523;SDS011;18965;52.242;20.886;2023-05-07T17:36:41;297.70;;;95.45;;
32523;SDS011;18965;52.242;20.886;2023-05-07T17:39:07;308.25;;;95.78;;
32523;SDS011;18965;52.242;20.886;2023-05-07T17:41:36;287.65;;;91.47;;
32523;SDS011;18965;52.242;20.886;2023-05-07T17:44:02;319.40;;;105.13;;
32523;SDS011;18965;52.242;20.886;2023-05-07T17:46:28;324.17;;;94.72;;
32523;SDS011;18965;52.242;20.886;2023-05-07T17:48:53;305.75;;;91.63;;
32523;SDS011;18965;52.242;20.886;2023-05-07T17:51:20;337.88;;;162.18;;
32523;SDS011;18965;52.242;20.886;2023-05-07T17:53:46;317.83;;;137.93;;
32523;SDS011;18965;52.242;20.886;2023-05-07T17:56:14;395.08;;;179.35;;
32523;SDS011;18965;52.242;20.886;2023-05-07T17:58:40;282.38;;;114.85;;
32523;SDS011;18965;52.242;20.886;2023-05-07T18:01:06;278.23;;;107.35;;
32523;SDS011;18965;52.242;20.886;2023-05-07T18:03:32;269.50;;;108.80;;
32523;SDS011;18965;52.242;20.886;2023-05-07T18:05:58;294.20;;;87.97;;
32523;SDS011;18965;52.242;20.886;2023-05-07T18:08:25;287.15;;;85.82;;
32523;SDS011;18965;52.242;20.886;2023-05-07T18:10:51;285.02;;;93.85;;
32523;SDS011;18965;52.242;20.886;2023-05-07T18:13:17;278.98;;;85.35;;
32523;SDS011;18965;52.242;20.886;2023-05-07T18:15:44;304.23;;;90.75;;
32523;SDS011;18965;52.242;20.886;2023-05-07T18:18:10;338.75;;;96.25;;
32523;SDS011;18965;52.242;20.886;2023-05-07T18:20:37;323.52;;;90.70;;
32523;SDS011;18965;52.242;20.886;2023-05-07T18:23:02;304.75;;;88.57;;
32523;SDS011;18965;52.242;20.886;2023-05-07T18:25:28;296.70;;;86.03;;
32523;SDS011;18965;52.242;20.886;2023-05-07T18:27:55;296.15;;;89.32;;
32523;SDS011;18965;52.242;20.886;2023-05-07T18:30:20;284.73;;;86.00;;
32523;SDS011;18965;52.242;20.886;2023-05-07T18:32:46;288.75;;;110.53;;
32523;SDS011;18965;52.242;20.886;2023-05-07T18:35:13;282.58;;;100.38;;
32523;SDS011;18965;52.242;20.886;2023-05-07T18:37:38;283.33;;;88.15;;
32523;SDS011;18965;52.242;20.886;2023-05-07T18:40:05;309.70;;;103.70;;
32523;SDS011;18965;52.242;20.886;2023-05-07T18:42:31;261.55;;;83.32;;
32523;SDS011;18965;52.242;20.886;2023-05-07T18:44:57;276.10;;;86.88;;
32523;SDS011;18965;52.242;20.886;2023-05-07T18:47:23;258.73;;;83.57;;
32523;SDS011;18965;52.242;20.886;2023-05-07T18:49:49;304.20;;;93.00;;
32523;SDS011;18965;52.242;20.886;2023-05-07T18:52:15;267.48;;;83.30;;
32523;SDS011;18965;52.242;20.886;2023-05-07T18:54:42;257.55;;;95.40;;
32523;SDS011;18965;52.242;20.886;2023-05-07T18:57:08;322.02;;;98.72;;
32523;SDS011;18965;52.242;20.886;2023-05-07T18:59:34;272.20;;;109.95;;
32523;SDS011;18965;52.242;20.886;2023-05-07T19:02:00;298.48;;;137.65;;
32523;SDS011;18965;52.242;20.886;2023-05-07T19:04:25;279.42;;;109.30;;
32523;SDS011;18965;52.242;20.886;2023-05-07T19:06:51;278.00;;;160.50;;
32523;SDS011;18965;52.242;20.886;2023-05-07T19:09:18;277.52;;;163.10;;
32523;SDS011;18965;52.242;20.886;2023-05-07T19:11:44;269.13;;;105.05;;
32523;SDS011;18965;52.242;20.886;2023-05-07T19:14:09;347.42;;;136.45;;
32523;SDS011;18965;52.242;20.886;2023-05-07T19:16:35;249.27;;;93.38;;
32523;SDS011;18965;52.242;20.886;2023-05-07T19:19:02;257.55;;;83.10;;
32523;SDS011;18965;52.242;20.886;2023-05-07T19:21:28;278.98;;;85.60;;
32523;SDS011;18965;52.242;20.886;2023-05-07T19:23:54;272.08;;;84.18;;
32523;SDS011;18965;52.242;20.886;2023-05-07T19:26:21;264.20;;;87.50;;
32523;SDS011;18965;52.242;20.886;2023-05-07T19:28:47;296.25;;;89.20;;
32523;SDS011;18965;52.242;20.886;2023-05-07T19:31:20;268.45;;;84.82;;
32523;SDS011;18965;52.242;20.886;2023-05-07T19:33:47;282.23;;;90.57;;
32523;SDS011;18965;52.242;20.886;2023-05-07T19:36:13;266.40;;;114.80;;
32523;SDS011;18965;52.242;20.886;2023-05-07T19:38:41;274.73;;;138.23;;
32523;SDS011;18965;52.242;20.886;2023-05-07T19:41:07;304.88;;;168.70;;
32523;SDS011;18965;52.242;20.886;2023-05-07T19:43:34;269.98;;;88.78;;
32523;SDS011;18965;52.242;20.886;2023-05-07T19:46:02;303.35;;;110.60;;
32523;SDS011;18965;52.242;20.886;2023-05-07T19:48:28;260.30;;;109.03;;
32523;SDS011;18965;52.242;20.886;2023-05-07T19:50:54;265.20;;;115.00;;
32523;SDS011;18965;52.242;20.886;2023-05-07T19:53:22;292.80;;;104.72;;
32523;SDS011;18965;52.242;20.886;2023-05-07T19:56:00;313.17;;;166.40;;
32523;SDS011;18965;52.242;20.886;2023-05-07T19:58:30;255.23;;;83.20;;
32523;SDS011;18965;52.242;20.886;2023-05-07T20:00:56;286.08;;;102.45;;
32523;SDS011;18965;52.242;20.886;2023-05-07T20:03:22;281.45;;;130.15;;
32523;SDS011;18965;52.242;20.886;2023-05-07T20:05:50;267.83;;;100.82;;
32523;SDS011;18965;52.242;20.886;2023-05-07T20:08:16;315.42;;;90.80;;
32523;SDS011;18965;52.242;20.886;2023-05-07T20:10:42;296.02;;;88.45;;
32523;SDS011;18965;52.242;20.886;2023-05-07T20:13:08;266.77;;;88.50;;
32523;SDS011;18965;52.242;20.886;2023-05-07T20:15:37;278.00;;;88.30;;
32523;SDS011;18965;52.242;20.886;2023-05-07T20:18:03;270.67;;;83.32;;
32523;SDS011;18965;52.242;20.886;2023-05-07T20:20:29;272.13;;;90.05;;
32523;SDS011;18965;52.242;20.886;2023-05-07T20:22:55;262.60;;;83.32;;
32523;SDS011;18965;52.242;20.886;2023-05-07T20:25:21;262.17;;;99.47;;
32523;SDS011;18965;52.242;20.886;2023-05-07T20:27:48;244.00;;;82.10;;
32523;SDS011;18965;52.242;20.886;2023-05-07T20:30:14;288.95;;;133.05;;
32523;SDS011;18965;52.242;20.886;2023-05-07T20:32:40;257.90;;;99.05;;
32523;SDS011;18965;52.242;20.886;2023-05-07T20:35:06;248.80;;;83.70;;
32523;SDS011;18965;52.242;20.886;2023-05-07T20:37:32;255.32;;;83.47;;
32523;SDS011;18965;52.242;20.886;2023-05-07T20:40:00;265.70;;;127.70;;
32523;SDS011;18965;52.242;20.886;2023-05-07T20:42:26;305.38;;;168.02;;
32523;SDS011;18965;52.242;20.886;2023-05-07T20:44:52;247.02;;;81.45;;
32523;SDS011;18965;52.242;20.886;2023-05-07T20:47:18;273.88;;;86.82;;
32523;SDS011;18965;52.242;20.886;2023-05-07T20:49:50;42.45;;;30.55;;
32523;SDS011;18965;52.242;20.886;2023-05-07T20:52:17;27.88;;;7.68;;
32523;SDS011;18965;52.242;20.886;2023-05-07T20:54:43;34.17;;;7.70;;
32523;SDS011;18965;52.242;20.886;2023-05-07T20:57:11;35.78;;;8.20;;
32523;SDS011;18965;52.242;20.886;2023-05-07T20:59:38;23.90;;;7.05;;
32523;SDS011;18965;52.242;20.886;2023-05-07T21:02:04;49.65;;;12.10;;
32523;SDS011;18965;52.242;20.886;2023-05-07T21:04:33;35.53;;;8.20;;
32523;SDS011;18965;52.242;20.886;2023-05-07T21:06:59;22.77;;;6.85;;
32523;SDS011;18965;52.242;20.886;2023-05-07T21:09:25;20.70;;;6.60;;
32523;SDS011;18965;52.242;20.886;2023-05-07T21:11:51;41.40;;;8.43;;
32523;SDS011;18965;52.242;20.886;2023-05-07T21:14:17;66.93;;;10.32;;
32523;SDS011;18965;52.242;20.886;2023-05-07T21:16:44;42.65;;;8.45;;
32523;SDS011;18965;52.242;20.886;2023-05-07T21:19:11;18.35;;;6.30;;
32523;SDS011;18965;52.242;20.886;2023-05-07T21:21:37;14.60;;;5.72;;
32523;SDS011;18965;52.242;20.886;2023-05-07T21:24:03;24.30;;;6.68;;
32523;SDS011;18965;52.242;20.886;2023-05-07T21:26:29;21.20;;;6.43;;
32523;SDS011;18965;52.242;20.886;2023-05-07T21:28:55;17.10;;;5.85;;
32523;SDS011;18965;52.242;20.886;2023-05-07T21:31:21;18.98;;;5.90;;
32523;SDS011;18965;52.242;20.886;2023-05-07T21:33:49;32.58;;;7.20;;
32523;SDS011;18965;52.242;20.886;2023-05-07T21:36:23;27.30;;;6.63;;
32523;SDS011;18965;52.242;20.886;2023-05-07T21:38:53;39.28;;;7.40;;
32523;SDS011;18965;52.242;20.886;2023-05-07T21:41:19;26.55;;;6.40;;
32523;SDS011;18965;52.242;20.886;2023-05-07T21:43:44;37.65;;;7.70;;
32523;SDS011;18965;52.242;20.886;2023-05-07T21:46:10;14.27;;;5.32;;
32523;SDS011;18965;52.242;20.886;2023-05-07T21:48:37;27.50;;;6.85;;
32523;SDS011;18965;52.242;20.886;2023-05-07T21:51:03;43.10;;;8.07;;
32523;SDS011;18965;52.242;20.886;2023-05-07T21:53:31;38.00;;;7.78;;
32523;SDS011;18965;52.242;20.886;2023-05-07T21:56:00;20.23;;;6.37;;
32523;SDS011;18965;52.242;20.886;2023-05-07T21:58:49;29.10;;;7.07;;
32523;SDS011;18965;52.242;20.886;2023-05-07T22:01:15;36.72;;;7.93;;
32523;SDS011;18965;52.242;20.886;2023-05-07T22:03:40;13.60;;;5.90;;
32523;SDS011;18965;52.242;20.886;2023-05-07T22:06:06;15.48;;;5.35;;
32523;SDS011;18965;52.242;20.886;2023-05-07T22:08:32;66.38;;;10.23;;
32523;SDS011;18965;52.242;20.886;2023-05-07T22:10:58;25.65;;;6.38;;
32523;SDS011;18965;52.242;20.886;2023-05-07T22:13:23;32.40;;;7.53;;
32523;SDS011;18965;52.242;20.886;2023-05-07T22:15:49;31.17;;;7.00;;
32523;SDS011;18965;52.242;20.886;2023-05-07T22:18:15;16.58;;;5.82;;
32523;SDS011;18965;52.242;20.886;2023-05-07T22:20:41;37.00;;;7.38;;
32523;SDS011;18965;52.242;20.886;2023-05-07T22:23:06;28.08;;;7.30;;
32523;SDS011;18965;52.242;20.886;2023-05-07T22:25:32;16.65;;;5.80;;
32523;SDS011;18965;52.242;20.886;2023-05-07T22:28:01;19.35;;;5.93;;
32523;SDS011;18965;52.242;20.886;2023-05-07T22:30:26;32.67;;;7.35;;
32523;SDS011;18965;52.242;20.886;2023-05-07T22:32:52;26.33;;;6.25;;
32523;SDS011;18965;52.242;20.886;2023-05-07T22:35:18;34.47;;;7.30;;
32523;SDS011;18965;52.242;20.886;2023-05-07T22:37:44;54.55;;;9.13;;
32523;SDS011;18965;52.242;20.886;2023-05-07T22:40:10;33.33;;;6.80;;
32523;SDS011;18965;52.242;20.886;2023-05-07T22:42:35;40.40;;;7.75;;
32523;SDS011;18965;52.242;20.886;2023-05-07T22:45:01;42.88;;;6.97;;
32523;SDS011;18965;52.242;20.886;2023-05-07T22:47:28;52.92;;;9.02;;
32523;SDS011;18965;52.242;20.886;2023-05-07T22:49:55;43.42;;;7.45;;
32523;SDS011;18965;52.242;20.886;2023-05-07T22:52:26;25.63;;;6.38;;
32523;SDS011;18965;52.242;20.886;2023-05-07T22:54:52;25.35;;;6.47;;
32523;SDS011;18965;52.242;20.886;2023-05-07T22:57:18;12.75;;;4.57;;
32523;SDS011;18965;52.242;20.886;2023-05-07T22:59:43;22.60;;;5.93;;
32523;SDS011;18965;52.242;20.886;2023-05-07T23:02:09;10.32;;;4.97;;
32523;SDS011;18965;52.242;20.886;2023-05-07T23:04:35;17.45;;;5.55;;
32523;SDS011;18965;52.242;20.886;2023-05-07T23:07:01;19.52;;;4.68;;
32523;SDS011;18965;52.242;20.886;2023-05-07T23:09:27;29.73;;;6.35;;
32523;SDS011;18965;52.242;20.886;2023-05-07T23:11:58;28.63;;;6.68;;
32523;SDS011;18965;52.242;20.886;2023-05-07T23:14:25;96.72;;;12.40;;
32523;SDS011;18965;52.242;20.886;2023-05-07T23:16:53;17.98;;;5.28;;
32523;SDS011;18965;52.242;20.886;2023-05-07T23:19:19;56.55;;;8.80;;
32523;SDS011;18965;52.242;20.886;2023-05-07T23:21:45;23.85;;;5.95;;
32523;SDS011;18965;52.242;20.886;2023-05-07T23:24:11;22.63;;;5.38;;
32523;SDS011;18965;52.242;20.886;2023-05-07T23:26:36;22.35;;;6.05;;
32523;SDS011;18965;52.242;20.886;2023-05-07T23:29:02;18.90;;;5.13;;
32523;SDS011;18965;52.242;20.886;2023-05-07T23:31:28;41.20;;;7.78;;
32523;SDS011;18965;52.242;20.886;2023-05-07T23:33:54;39.25;;;7.10;;
32523;SDS011;18965;52.242;20.886;2023-05-07T23:36:20;25.83;;;6.07;;
32523;SDS011;18965;52.242;20.886;2023-05-07T23:38:46;18.08;;;5.75;;
32523;SDS011;18965;52.242;20.886;2023-05-07T23:41:11;41.80;;;7.35;;
32523;SDS011;18965;52.242;20.886;2023-05-07T23:43:37;33.60;;;6.50;;
32523;SDS011;18965;52.242;20.886;2023-05-07T23:46:03;34.08;;;6.85;;
32523;SDS011;18965;52.242;20.886;2023-05-07T23:48:28;14.77;;;5.65;;
32523;SDS011;18965;52.242;20.886;2023-05-07T23:50:54;22.90;;;5.88;;
32523;SDS011;18965;52.242;20.886;2023-05-07T23:53:20;28.90;;;6.18;;
32523;SDS011;18965;52.242;20.886;2023-05-07T23:55:46;32.40;;;6.57;;
32523;SDS011;18965;52.242;20.886;2023-05-07T23:58:11;19.02;;;5.72;;
